sensor_id;sensor_type;location;lat;lon;timestamp;temperature;humidity
37378;DHT22;23248;48.120;14.854;2022-12-31T00:01:26;5.00;99.90
37378;DHT22;23248;48.120;14.854;2022-12-31T00:03:52;5.00;99.90
37378;DHT22;23248;48.120;14.854;2022-12-31T00:06:25;5.10;99.90
37378;DHT22;23248;48.120;14.854;2022-12-31T00:08:51;5.30;99.90
37378;DHT22;23248;48.120;14.854;2022-12-31T00:11:18;5.20;99.90
37378;DHT22;23248;48.120;14.854;2022-12-31T00:13:43;5.20;99.90
37378;DHT22;23248;48.120;14.854;2022-12-31T00:16:12;5.20;99.90
37378;DHT22;23248;48.120;14.854;2022-12-31T00:18:41;5.30;99.90
37378;DHT22;23248;48.120;14.854;2022-12-31T00:21:07;5.30;99.90
37378;DHT22;23248;48.120;14.854;2022-12-31T00:23:33;5.20;99.90
37378;DHT22;23248;48.120;14.854;2022-12-31T00:26:07;5.20;99.90
37378;DHT22;23248;48.120;14.854;2022-12-31T00:28:33;5.20;99.90
37378;DHT22;23248;48.120;14.854;2022-12-31T00:31:04;5.30;99.90
37378;DHT22;23248;48.120;14.854;2022-12-31T00:33:30;5.30;99.90
37378;DHT22;23248;48.120;14.854;2022-12-31T00:36:02;5.30;99.90
37378;DHT22;23248;48.120;14.854;2022-12-31T00:38:28;5.30;99.90
37378;DHT22;23248;48.120;14.854;2022-12-31T00:40:53;5.20;99.90
37378;DHT22;23248;48.120;14.854;2022-12-31T00:43:19;5.30;99.90
37378;DHT22;23248;48.120;14.854;2022-12-31T00:45:44;5.20;99.90
37378;DHT22;23248;48.120;14.854;2022-12-31T00:48:10;5.20;99.90
37378;DHT22;23248;48.120;14.854;2022-12-31T00:50:35;5.20;99.90
37378;DHT22;23248;48.120;14.854;2022-12-31T00:53:01;5.20;99.90
37378;DHT22;23248;48.120;14.854;2022-12-31T00:55:26;5.20;99.90
37378;DHT22;23248;48.120;14.854;2022-12-31T00:57:52;5.20;99.90
37378;DHT22;23248;48.120;14.854;2022-12-31T01:00:20;5.20;99.90
37378;DHT22;23248;48.120;14.854;2022-12-31T01:02:45;5.20;99.90
37378;DHT22;23248;48.120;14.854;2022-12-31T01:05:11;5.30;99.90
37378;DHT22;23248;48.120;14.854;2022-12-31T01:07:37;5.20;99.90
37378;DHT22;23248;48.120;14.854;2022-12-31T01:10:03;5.20;99.90
37378;DHT22;23248;48.120;14.854;2022-12-31T01:12:29;5.10;99.90
37378;DHT22;23248;48.120;14.854;2022-12-31T01:14:54;5.00;99.90
37378;DHT22;23248;48.120;14.854;2022-12-31T01:17:20;5.10;99.90
37378;DHT22;23248;48.120;14.854;2022-12-31T01:19:45;5.10;99.90
37378;DHT22;23248;48.120;14.854;2022-12-31T01:22:11;5.00;99.90
37378;DHT22;23248;48.120;14.854;2022-12-31T01:24:36;5.00;99.90
37378;DHT22;23248;48.120;14.854;2022-12-31T01:27:02;5.00;99.90
37378;DHT22;23248;48.120;14.854;2022-12-31T01:29:28;5.00;99.90
37378;DHT22;23248;48.120;14.854;2022-12-31T01:31:54;5.00;99.90
37378;DHT22;23248;48.120;14.854;2022-12-31T01:34:19;5.00;99.90
37378;DHT22;23248;48.120;14.854;2022-12-31T01:36:45;5.00;99.90
37378;DHT22;23248;48.120;14.854;2022-12-31T01:39:10;5.00;99.90
37378;DHT22;23248;48.120;14.854;2022-12-31T01:41:37;5.00;99.90
37378;DHT22;23248;48.120;14.854;2022-12-31T01:46:41;5.00;99.90
37378;DHT22;23248;48.120;14.854;2022-12-31T01:51:34;5.00;99.90
37378;DHT22;23248;48.120;14.854;2022-12-31T01:54:01;5.10;99.90
37378;DHT22;23248;48.120;14.854;2022-12-31T01:56:28;5.10;99.90
37378;DHT22;23248;48.120;14.854;2022-12-31T01:58:54;5.10;99.90
37378;DHT22;23248;48.120;14.854;2022-12-31T02:01:23;5.00;99.90
37378;DHT22;23248;48.120;14.854;2022-12-31T02:03:50;5.00;99.90
37378;DHT22;23248;48.120;14.854;2022-12-31T02:06:17;5.00;99.90
37378;DHT22;23248;48.120;14.854;2022-12-31T02:08:44;5.10;99.90
37378;DHT22;23248;48.120;14.854;2022-12-31T02:13:48;5.10;99.90
37378;DHT22;23248;48.120;14.854;2022-12-31T02:16:17;5.00;99.90
37378;DHT22;23248;48.120;14.854;2022-12-31T02:18:50;5.00;99.90
37378;DHT22;23248;48.120;14.854;2022-12-31T02:31:36;5.00;99.90
37378;DHT22;23248;48.120;14.854;2022-12-31T02:36:31;5.10;99.90
37378;DHT22;23248;48.120;14.854;2022-12-31T02:38:58;5.10;99.90
37378;DHT22;23248;48.120;14.854;2022-12-31T02:41:25;5.20;99.90
37378;DHT22;23248;48.120;14.854;2022-12-31T02:46:45;5.10;99.90
37378;DHT22;23248;48.120;14.854;2022-12-31T02:56:37;5.20;99.90
37378;DHT22;23248;48.120;14.854;2022-12-31T02:59:06;5.30;99.90
37378;DHT22;23248;48.120;14.854;2022-12-31T03:01:54;5.10;99.90
37378;DHT22;23248;48.120;14.854;2022-12-31T03:04:41;5.20;99.90
37378;DHT22;23248;48.120;14.854;2022-12-31T03:07:11;5.20;99.90
37378;DHT22;23248;48.120;14.854;2022-12-31T03:09:38;5.20;99.90
37378;DHT22;23248;48.120;14.854;2022-12-31T03:12:07;5.20;99.90
37378;DHT22;23248;48.120;14.854;2022-12-31T03:14:52;5.20;99.90
37378;DHT22;23248;48.120;14.854;2022-12-31T03:17:18;5.10;99.90
37378;DHT22;23248;48.120;14.854;2022-12-31T03:19:43;5.10;99.90
37378;DHT22;23248;48.120;14.854;2022-12-31T03:22:27;5.10;99.90
37378;DHT22;23248;48.120;14.854;2022-12-31T03:25:04;5.10;99.90
37378;DHT22;23248;48.120;14.854;2022-12-31T03:27:48;5.00;99.90
37378;DHT22;23248;48.120;14.854;2022-12-31T03:30:15;5.00;99.90
37378;DHT22;23248;48.120;14.854;2022-12-31T03:32:41;5.10;99.90
37378;DHT22;23248;48.120;14.854;2022-12-31T03:35:07;5.00;99.90
37378;DHT22;23248;48.120;14.854;2022-12-31T03:37:33;4.90;99.90
37378;DHT22;23248;48.120;14.854;2022-12-31T03:39:58;4.90;99.90
37378;DHT22;23248;48.120;14.854;2022-12-31T03:42:24;4.80;99.90
37378;DHT22;23248;48.120;14.854;2022-12-31T03:44:50;4.80;99.90
37378;DHT22;23248;48.120;14.854;2022-12-31T03:47:15;4.80;99.90
37378;DHT22;23248;48.120;14.854;2022-12-31T03:49:41;4.80;99.90
37378;DHT22;23248;48.120;14.854;2022-12-31T03:52:06;4.70;99.90
37378;DHT22;23248;48.120;14.854;2022-12-31T03:54:33;4.80;99.90
37378;DHT22;23248;48.120;14.854;2022-12-31T03:56:58;4.90;99.90
37378;DHT22;23248;48.120;14.854;2022-12-31T03:59:24;4.90;99.90
37378;DHT22;23248;48.120;14.854;2022-12-31T04:01:50;4.90;99.90
37378;DHT22;23248;48.120;14.854;2022-12-31T04:04:15;4.90;99.90
37378;DHT22;23248;48.120;14.854;2022-12-31T04:06:41;4.80;99.90
37378;DHT22;23248;48.120;14.854;2022-12-31T04:09:06;4.90;99.90
37378;DHT22;23248;48.120;14.854;2022-12-31T04:11:32;4.80;99.90
37378;DHT22;23248;48.120;14.854;2022-12-31T04:13:57;4.80;99.90
37378;DHT22;23248;48.120;14.854;2022-12-31T04:16:23;4.90;99.90
37378;DHT22;23248;48.120;14.854;2022-12-31T04:18:49;4.90;99.90
37378;DHT22;23248;48.120;14.854;2022-12-31T04:21:14;4.90;99.90
37378;DHT22;23248;48.120;14.854;2022-12-31T04:23:40;5.00;99.90
37378;DHT22;23248;48.120;14.854;2022-12-31T04:26:06;5.00;99.90
37378;DHT22;23248;48.120;14.854;2022-12-31T04:28:31;5.00;99.90
37378;DHT22;23248;48.120;14.854;2022-12-31T04:30:57;5.10;99.90
37378;DHT22;23248;48.120;14.854;2022-12-31T04:33:22;5.10;99.90
37378;DHT22;23248;48.120;14.854;2022-12-31T04:35:48;5.10;99.90
37378;DHT22;23248;48.120;14.854;2022-12-31T04:38:13;5.10;99.90
37378;DHT22;23248;48.120;14.854;2022-12-31T04:40:39;5.20;99.90
37378;DHT22;23248;48.120;14.854;2022-12-31T04:43:25;5.10;99.90
37378;DHT22;23248;48.120;14.854;2022-12-31T04:45:50;5.20;99.90
37378;DHT22;23248;48.120;14.854;2022-12-31T04:48:16;5.10;99.90
37378;DHT22;23248;48.120;14.854;2022-12-31T04:50:41;5.10;99.90
37378;DHT22;23248;48.120;14.854;2022-12-31T04:53:07;5.20;99.90
37378;DHT22;23248;48.120;14.854;2022-12-31T04:55:32;5.10;99.90
37378;DHT22;23248;48.120;14.854;2022-12-31T04:57:58;5.20;99.90
37378;DHT22;23248;48.120;14.854;2022-12-31T05:00:23;5.20;99.90
37378;DHT22;23248;48.120;14.854;2022-12-31T05:02:49;5.20;99.90
37378;DHT22;23248;48.120;14.854;2022-12-31T05:05:15;5.20;99.90
37378;DHT22;23248;48.120;14.854;2022-12-31T05:07:40;5.20;99.90
37378;DHT22;23248;48.120;14.854;2022-12-31T05:10:06;5.20;99.90
37378;DHT22;23248;48.120;14.854;2022-12-31T05:12:31;5.20;99.90
37378;DHT22;23248;48.120;14.854;2022-12-31T05:14:57;5.20;99.90
37378;DHT22;23248;48.120;14.854;2022-12-31T05:17:23;5.30;99.90
37378;DHT22;23248;48.120;14.854;2022-12-31T05:19:48;5.30;99.90
37378;DHT22;23248;48.120;14.854;2022-12-31T05:22:14;5.20;99.90
37378;DHT22;23248;48.120;14.854;2022-12-31T05:24:57;5.20;99.90
37378;DHT22;23248;48.120;14.854;2022-12-31T05:27:23;5.10;99.90
37378;DHT22;23248;48.120;14.854;2022-12-31T05:29:49;5.20;99.90
37378;DHT22;23248;48.120;14.854;2022-12-31T05:32:15;5.20;99.90
37378;DHT22;23248;48.120;14.854;2022-12-31T05:34:42;5.20;99.90
37378;DHT22;23248;48.120;14.854;2022-12-31T05:37:07;5.20;99.90
37378;DHT22;23248;48.120;14.854;2022-12-31T05:39:33;5.20;99.90
37378;DHT22;23248;48.120;14.854;2022-12-31T05:41:59;5.30;99.90
37378;DHT22;23248;48.120;14.854;2022-12-31T05:44:24;5.30;99.90
37378;DHT22;23248;48.120;14.854;2022-12-31T05:46:50;5.30;99.90
37378;DHT22;23248;48.120;14.854;2022-12-31T05:49:15;5.20;99.90
37378;DHT22;23248;48.120;14.854;2022-12-31T05:51:41;5.20;99.90
37378;DHT22;23248;48.120;14.854;2022-12-31T05:54:07;5.20;99.90
37378;DHT22;23248;48.120;14.854;2022-12-31T05:56:32;5.30;99.90
37378;DHT22;23248;48.120;14.854;2022-12-31T05:58:58;5.20;99.90
37378;DHT22;23248;48.120;14.854;2022-12-31T06:01:23;5.20;99.90
37378;DHT22;23248;48.120;14.854;2022-12-31T06:03:49;5.30;99.90
37378;DHT22;23248;48.120;14.854;2022-12-31T06:06:15;5.30;99.90
37378;DHT22;23248;48.120;14.854;2022-12-31T06:08:40;5.30;99.90
37378;DHT22;23248;48.120;14.854;2022-12-31T06:11:06;5.30;99.90
37378;DHT22;23248;48.120;14.854;2022-12-31T06:13:31;5.30;99.90
37378;DHT22;23248;48.120;14.854;2022-12-31T06:15:57;5.30;99.90
37378;DHT22;23248;48.120;14.854;2022-12-31T06:18:22;5.30;99.90
37378;DHT22;23248;48.120;14.854;2022-12-31T06:20:48;5.30;99.90
37378;DHT22;23248;48.120;14.854;2022-12-31T06:23:14;5.30;99.90
37378;DHT22;23248;48.120;14.854;2022-12-31T06:25:39;5.30;99.90
37378;DHT22;23248;48.120;14.854;2022-12-31T06:28:05;5.30;99.90
37378;DHT22;23248;48.120;14.854;2022-12-31T06:30:30;5.30;99.90
37378;DHT22;23248;48.120;14.854;2022-12-31T06:32:56;5.30;99.90
37378;DHT22;23248;48.120;14.854;2022-12-31T06:35:22;5.40;99.90
37378;DHT22;23248;48.120;14.854;2022-12-31T06:37:47;5.40;99.90
37378;DHT22;23248;48.120;14.854;2022-12-31T06:40:13;5.40;99.90
37378;DHT22;23248;48.120;14.854;2022-12-31T06:42:39;5.30;99.90
37378;DHT22;23248;48.120;14.854;2022-12-31T06:45:06;5.40;99.90
37378;DHT22;23248;48.120;14.854;2022-12-31T06:47:32;5.40;99.90
37378;DHT22;23248;48.120;14.854;2022-12-31T06:49:58;5.40;99.90
37378;DHT22;23248;48.120;14.854;2022-12-31T06:52:23;5.40;99.90
37378;DHT22;23248;48.120;14.854;2022-12-31T06:54:49;5.50;99.90
37378;DHT22;23248;48.120;14.854;2022-12-31T06:57:15;5.50;99.90
37378;DHT22;23248;48.120;14.854;2022-12-31T06:59:40;5.50;99.90
37378;DHT22;23248;48.120;14.854;2022-12-31T07:07:32;5.70;99.90
37378;DHT22;23248;48.120;14.854;2022-12-31T07:10:13;5.70;99.90
37378;DHT22;23248;48.120;14.854;2022-12-31T07:15:10;5.70;99.90
37378;DHT22;23248;48.120;14.854;2022-12-31T07:17:40;5.80;99.90
37378;DHT22;23248;48.120;14.854;2022-12-31T07:20:11;5.70;99.90
37378;DHT22;23248;48.120;14.854;2022-12-31T07:22:37;5.70;99.90
37378;DHT22;23248;48.120;14.854;2022-12-31T07:25:03;5.70;99.90
37378;DHT22;23248;48.120;14.854;2022-12-31T07:30:07;5.70;99.90
37378;DHT22;23248;48.120;14.854;2022-12-31T07:37:50;5.80;99.90
37378;DHT22;23248;48.120;14.854;2022-12-31T07:45:27;6.00;99.90
37378;DHT22;23248;48.120;14.854;2022-12-31T07:47:54;6.00;99.90
37378;DHT22;23248;48.120;14.854;2022-12-31T07:50:20;6.10;99.90
37378;DHT22;23248;48.120;14.854;2022-12-31T07:52:45;6.20;99.90
37378;DHT22;23248;48.120;14.854;2022-12-31T07:55:11;6.20;99.90
37378;DHT22;23248;48.120;14.854;2022-12-31T07:57:43;6.20;99.90
37378;DHT22;23248;48.120;14.854;2022-12-31T08:00:12;6.20;99.90
37378;DHT22;23248;48.120;14.854;2022-12-31T08:05:07;6.50;99.90
37378;DHT22;23248;48.120;14.854;2022-12-31T08:11:07;6.30;99.90
37378;DHT22;23248;48.120;14.854;2022-12-31T08:13:02;6.30;99.90
37378;DHT22;23248;48.120;14.854;2022-12-31T08:15:29;6.40;99.90
37378;DHT22;23248;48.120;14.854;2022-12-31T08:17:54;6.40;99.90
37378;DHT22;23248;48.120;14.854;2022-12-31T08:20:20;6.50;99.90
37378;DHT22;23248;48.120;14.854;2022-12-31T08:39:15;6.60;99.90
37378;DHT22;23248;48.120;14.854;2022-12-31T08:41:44;6.70;99.90
37378;DHT22;23248;48.120;14.854;2022-12-31T08:44:19;6.70;99.90
37378;DHT22;23248;48.120;14.854;2022-12-31T08:49:12;6.80;99.90
37378;DHT22;23248;48.120;14.854;2022-12-31T08:51:39;6.90;99.90
37378;DHT22;23248;48.120;14.854;2022-12-31T08:54:05;7.00;99.90
37378;DHT22;23248;48.120;14.854;2022-12-31T08:56:45;7.00;99.90
37378;DHT22;23248;48.120;14.854;2022-12-31T09:01:58;7.10;99.90
37378;DHT22;23248;48.120;14.854;2022-12-31T09:07:11;7.20;99.90
37378;DHT22;23248;48.120;14.854;2022-12-31T09:12:12;7.20;99.90
37378;DHT22;23248;48.120;14.854;2022-12-31T09:17:24;7.30;99.90
37378;DHT22;23248;48.120;14.854;2022-12-31T09:19:53;7.30;99.90
37378;DHT22;23248;48.120;14.854;2022-12-31T09:22:19;7.30;99.90
37378;DHT22;23248;48.120;14.854;2022-12-31T09:24:45;7.40;99.90
37378;DHT22;23248;48.120;14.854;2022-12-31T09:27:15;7.50;99.90
37378;DHT22;23248;48.120;14.854;2022-12-31T09:29:54;7.50;99.90
37378;DHT22;23248;48.120;14.854;2022-12-31T09:35:10;7.70;99.90
37378;DHT22;23248;48.120;14.854;2022-12-31T09:37:42;7.70;99.90
37378;DHT22;23248;48.120;14.854;2022-12-31T09:53:17;7.70;99.90
37378;DHT22;23248;48.120;14.854;2022-12-31T09:55:48;7.80;99.90
37378;DHT22;23248;48.120;14.854;2022-12-31T10:00:43;7.70;99.90
37378;DHT22;23248;48.120;14.854;2022-12-31T10:10:51;7.80;99.90
37378;DHT22;23248;48.120;14.854;2022-12-31T10:15:58;7.90;99.90
37378;DHT22;23248;48.120;14.854;2022-12-31T10:42:01;8.40;99.90
37378;DHT22;23248;48.120;14.854;2022-12-31T10:49:49;8.30;99.90
37378;DHT22;23248;48.120;14.854;2022-12-31T11:00:24;8.70;99.90
37378;DHT22;23248;48.120;14.854;2022-12-31T11:18:46;9.40;99.90
37378;DHT22;23248;48.120;14.854;2022-12-31T11:23:48;9.40;99.90
37378;DHT22;23248;48.120;14.854;2022-12-31T11:34:33;9.50;99.90
37378;DHT22;23248;48.120;14.854;2022-12-31T11:39:59;9.80;99.90
37378;DHT22;23248;48.120;14.854;2022-12-31T11:42:38;10.00;99.90
37378;DHT22;23248;48.120;14.854;2022-12-31T11:53:20;10.10;99.90
37378;DHT22;23248;48.120;14.854;2022-12-31T11:56:02;10.10;99.90
37378;DHT22;23248;48.120;14.854;2022-12-31T11:58:32;10.00;99.90
37378;DHT22;23248;48.120;14.854;2022-12-31T12:01:21;9.90;99.90
37378;DHT22;23248;48.120;14.854;2022-12-31T12:03:48;9.80;99.90
37378;DHT22;23248;48.120;14.854;2022-12-31T12:06:15;9.70;99.90
37378;DHT22;23248;48.120;14.854;2022-12-31T12:08:42;9.60;99.90
37378;DHT22;23248;48.120;14.854;2022-12-31T12:13:43;9.60;99.90
37378;DHT22;23248;48.120;14.854;2022-12-31T12:16:09;9.60;99.90
37378;DHT22;23248;48.120;14.854;2022-12-31T12:18:43;9.60;99.90
37378;DHT22;23248;48.120;14.854;2022-12-31T12:21:10;9.60;99.90
37378;DHT22;23248;48.120;14.854;2022-12-31T12:23:37;9.50;99.90
37378;DHT22;23248;48.120;14.854;2022-12-31T12:26:03;9.50;99.90
37378;DHT22;23248;48.120;14.854;2022-12-31T12:28:30;9.50;99.90
37378;DHT22;23248;48.120;14.854;2022-12-31T12:31:00;9.50;99.90
37378;DHT22;23248;48.120;14.854;2022-12-31T12:33:26;9.50;99.90
37378;DHT22;23248;48.120;14.854;2022-12-31T12:36:04;9.80;99.90
37378;DHT22;23248;48.120;14.854;2022-12-31T12:38:30;9.90;99.90
37378;DHT22;23248;48.120;14.854;2022-12-31T12:41:00;10.00;99.90
37378;DHT22;23248;48.120;14.854;2022-12-31T12:43:27;10.10;99.90
37378;DHT22;23248;48.120;14.854;2022-12-31T12:46:04;10.20;99.90
37378;DHT22;23248;48.120;14.854;2022-12-31T12:48:31;10.30;99.90
37378;DHT22;23248;48.120;14.854;2022-12-31T12:50:59;10.40;99.90
37378;DHT22;23248;48.120;14.854;2022-12-31T12:53:35;10.50;99.90
37378;DHT22;23248;48.120;14.854;2022-12-31T12:56:06;10.50;99.90
37378;DHT22;23248;48.120;14.854;2022-12-31T12:58:36;10.50;99.90
37378;DHT22;23248;48.120;14.854;2022-12-31T13:01:12;10.50;99.90
37378;DHT22;23248;48.120;14.854;2022-12-31T13:04:14;10.40;99.90
37378;DHT22;23248;48.120;14.854;2022-12-31T13:09:04;10.50;99.90
37378;DHT22;23248;48.120;14.854;2022-12-31T13:16:49;10.40;99.90
37378;DHT22;23248;48.120;14.854;2022-12-31T13:19:34;10.40;99.90
37378;DHT22;23248;48.120;14.854;2022-12-31T13:22:42;10.40;99.90
37378;DHT22;23248;48.120;14.854;2022-12-31T13:29:40;10.40;99.90
37378;DHT22;23248;48.120;14.854;2022-12-31T13:32:06;10.40;99.90
37378;DHT22;23248;48.120;14.854;2022-12-31T13:34:34;10.50;99.90
37378;DHT22;23248;48.120;14.854;2022-12-31T13:37:02;10.50;99.90
37378;DHT22;23248;48.120;14.854;2022-12-31T13:39:30;10.60;99.90
37378;DHT22;23248;48.120;14.854;2022-12-31T13:44:58;10.60;99.90
37378;DHT22;23248;48.120;14.854;2022-12-31T13:47:32;10.70;99.90
37378;DHT22;23248;48.120;14.854;2022-12-31T13:52:57;10.80;99.90
37378;DHT22;23248;48.120;14.854;2022-12-31T13:55:31;10.70;99.90
37378;DHT22;23248;48.120;14.854;2022-12-31T13:58:02;10.70;99.90
37378;DHT22;23248;48.120;14.854;2022-12-31T14:00:31;10.80;99.90
37378;DHT22;23248;48.120;14.854;2022-12-31T14:03:05;10.70;99.90
37378;DHT22;23248;48.120;14.854;2022-12-31T14:05:34;10.70;99.90
37378;DHT22;23248;48.120;14.854;2022-12-31T14:08:03;10.70;99.90
37378;DHT22;23248;48.120;14.854;2022-12-31T14:10:33;10.80;99.90
37378;DHT22;23248;48.120;14.854;2022-12-31T14:15:32;10.70;99.90
37378;DHT22;23248;48.120;14.854;2022-12-31T14:23:08;10.80;99.90
37378;DHT22;23248;48.120;14.854;2022-12-31T14:25:37;10.80;99.90
37378;DHT22;23248;48.120;14.854;2022-12-31T14:28:05;10.70;99.90
37378;DHT22;23248;48.120;14.854;2022-12-31T14:30:35;10.60;99.90
37378;DHT22;23248;48.120;14.854;2022-12-31T14:45:41;10.30;99.90
37378;DHT22;23248;48.120;14.854;2022-12-31T14:50:42;10.20;99.90
37378;DHT22;23248;48.120;14.854;2022-12-31T14:53:16;10.10;99.90
37378;DHT22;23248;48.120;14.854;2022-12-31T14:55:43;10.00;99.90
37378;DHT22;23248;48.120;14.854;2022-12-31T14:58:22;9.90;99.90
37378;DHT22;23248;48.120;14.854;2022-12-31T15:19:12;9.40;99.90
37378;DHT22;23248;48.120;14.854;2022-12-31T15:24:21;9.20;99.90
37378;DHT22;23248;48.120;14.854;2022-12-31T15:26:51;9.10;99.90
37378;DHT22;23248;48.120;14.854;2022-12-31T15:29:27;9.10;99.90
37378;DHT22;23248;48.120;14.854;2022-12-31T15:31:54;9.00;99.90
37378;DHT22;23248;48.120;14.854;2022-12-31T15:34:31;8.90;99.90
37378;DHT22;23248;48.120;14.854;2022-12-31T15:36:59;8.90;99.90
37378;DHT22;23248;48.120;14.854;2022-12-31T15:41:56;8.90;99.90
37378;DHT22;23248;48.120;14.854;2022-12-31T15:47:01;8.80;99.90
37378;DHT22;23248;48.120;14.854;2022-12-31T15:49:29;8.90;99.90
37378;DHT22;23248;48.120;14.854;2022-12-31T15:52:07;8.80;99.90
37378;DHT22;23248;48.120;14.854;2022-12-31T15:54:38;8.80;99.90
37378;DHT22;23248;48.120;14.854;2022-12-31T15:57:05;8.80;99.90
37378;DHT22;23248;48.120;14.854;2022-12-31T15:59:36;8.70;99.90
37378;DHT22;23248;48.120;14.854;2022-12-31T16:02:03;8.70;99.90
37378;DHT22;23248;48.120;14.854;2022-12-31T16:04:29;8.70;99.90
37378;DHT22;23248;48.120;14.854;2022-12-31T16:06:58;8.70;99.90
37378;DHT22;23248;48.120;14.854;2022-12-31T16:09:28;8.70;99.90
37378;DHT22;23248;48.120;14.854;2022-12-31T16:11:55;8.60;99.90
37378;DHT22;23248;48.120;14.854;2022-12-31T16:14:22;8.60;99.90
37378;DHT22;23248;48.120;14.854;2022-12-31T16:16:53;8.50;99.90
37378;DHT22;23248;48.120;14.854;2022-12-31T16:19:35;8.40;99.90
37378;DHT22;23248;48.120;14.854;2022-12-31T16:22:06;8.30;99.90
37378;DHT22;23248;48.120;14.854;2022-12-31T16:24:33;8.20;99.90
37378;DHT22;23248;48.120;14.854;2022-12-31T16:27:06;8.20;99.90
37378;DHT22;23248;48.120;14.854;2022-12-31T16:29:33;8.20;99.90
37378;DHT22;23248;48.120;14.854;2022-12-31T16:31:59;8.20;99.90
37378;DHT22;23248;48.120;14.854;2022-12-31T16:34:26;8.20;99.90
37378;DHT22;23248;48.120;14.854;2022-12-31T16:37:02;8.20;99.90
37378;DHT22;23248;48.120;14.854;2022-12-31T16:39:31;8.10;99.90
37378;DHT22;23248;48.120;14.854;2022-12-31T16:44:37;7.80;99.90
37378;DHT22;23248;48.120;14.854;2022-12-31T16:47:03;7.70;99.90
37378;DHT22;23248;48.120;14.854;2022-12-31T16:49:30;7.60;99.90
37378;DHT22;23248;48.120;14.854;2022-12-31T16:52:00;7.60;99.90
37378;DHT22;23248;48.120;14.854;2022-12-31T16:54:30;7.50;99.90
37378;DHT22;23248;48.120;14.854;2022-12-31T16:56:57;7.50;99.90
37378;DHT22;23248;48.120;14.854;2022-12-31T16:59:30;7.40;99.90
37378;DHT22;23248;48.120;14.854;2022-12-31T17:01:59;7.30;99.90
37378;DHT22;23248;48.120;14.854;2022-12-31T17:04:26;7.30;99.90
37378;DHT22;23248;48.120;14.854;2022-12-31T17:06:52;7.30;99.90
37378;DHT22;23248;48.120;14.854;2022-12-31T17:09:20;7.30;99.90
37378;DHT22;23248;48.120;14.854;2022-12-31T17:11:57;7.40;99.90
37378;DHT22;23248;48.120;14.854;2022-12-31T17:14:49;7.30;99.90
37378;DHT22;23248;48.120;14.854;2022-12-31T17:17:23;7.30;99.90
37378;DHT22;23248;48.120;14.854;2022-12-31T17:19:55;7.20;99.90
37378;DHT22;23248;48.120;14.854;2022-12-31T17:22:31;7.20;99.90
37378;DHT22;23248;48.120;14.854;2022-12-31T17:25:05;7.10;99.90
37378;DHT22;23248;48.120;14.854;2022-12-31T17:27:32;7.20;99.90
37378;DHT22;23248;48.120;14.854;2022-12-31T17:30:18;7.10;99.90
37378;DHT22;23248;48.120;14.854;2022-12-31T17:32:44;7.10;99.90
37378;DHT22;23248;48.120;14.854;2022-12-31T17:35:31;7.10;99.90
37378;DHT22;23248;48.120;14.854;2022-12-31T17:40:41;7.10;99.90
37378;DHT22;23248;48.120;14.854;2022-12-31T17:43:08;7.10;99.90
37378;DHT22;23248;48.120;14.854;2022-12-31T17:45:35;7.00;99.90
37378;DHT22;23248;48.120;14.854;2022-12-31T17:48:03;7.00;99.90
37378;DHT22;23248;48.120;14.854;2022-12-31T17:50:29;6.90;99.90
37378;DHT22;23248;48.120;14.854;2022-12-31T17:53:11;7.00;99.90
37378;DHT22;23248;48.120;14.854;2022-12-31T17:55:37;6.90;99.90
37378;DHT22;23248;48.120;14.854;2022-12-31T17:58:04;6.90;99.90
37378;DHT22;23248;48.120;14.854;2022-12-31T18:00:31;6.80;99.90
37378;DHT22;23248;48.120;14.854;2022-12-31T18:02:58;6.80;99.90
37378;DHT22;23248;48.120;14.854;2022-12-31T18:05:24;6.90;99.90
37378;DHT22;23248;48.120;14.854;2022-12-31T18:07:51;7.00;99.90
37378;DHT22;23248;48.120;14.854;2022-12-31T18:10:20;7.00;99.90
37378;DHT22;23248;48.120;14.854;2022-12-31T18:12:47;6.90;99.90
37378;DHT22;23248;48.120;14.854;2022-12-31T18:15:19;6.80;99.90
37378;DHT22;23248;48.120;14.854;2022-12-31T18:17:46;6.70;99.90
37378;DHT22;23248;48.120;14.854;2022-12-31T18:20:12;6.70;99.90
37378;DHT22;23248;48.120;14.854;2022-12-31T18:22:39;6.70;99.90
37378;DHT22;23248;48.120;14.854;2022-12-31T18:25:06;6.70;99.90
37378;DHT22;23248;48.120;14.854;2022-12-31T18:27:32;6.60;99.90
37378;DHT22;23248;48.120;14.854;2022-12-31T18:29:59;6.60;99.90
37378;DHT22;23248;48.120;14.854;2022-12-31T18:32:28;6.50;99.90
37378;DHT22;23248;48.120;14.854;2022-12-31T18:34:54;6.40;99.90
37378;DHT22;23248;48.120;14.854;2022-12-31T18:37:21;6.30;99.90
37378;DHT22;23248;48.120;14.854;2022-12-31T18:39:46;6.30;99.90
37378;DHT22;23248;48.120;14.854;2022-12-31T18:42:13;6.20;99.90
37378;DHT22;23248;48.120;14.854;2022-12-31T18:44:40;6.20;99.90
37378;DHT22;23248;48.120;14.854;2022-12-31T18:47:14;6.20;99.90
37378;DHT22;23248;48.120;14.854;2022-12-31T18:49:40;6.10;99.90
37378;DHT22;23248;48.120;14.854;2022-12-31T18:52:16;6.00;99.90
37378;DHT22;23248;48.120;14.854;2022-12-31T18:54:42;6.00;99.90
37378;DHT22;23248;48.120;14.854;2022-12-31T18:57:12;6.10;99.90
37378;DHT22;23248;48.120;14.854;2022-12-31T18:59:38;6.10;99.90
37378;DHT22;23248;48.120;14.854;2022-12-31T19:02:06;6.10;99.90
37378;DHT22;23248;48.120;14.854;2022-12-31T19:04:35;6.10;99.90
37378;DHT22;23248;48.120;14.854;2022-12-31T19:07:01;6.10;99.90
37378;DHT22;23248;48.120;14.854;2022-12-31T19:09:26;6.20;99.90
37378;DHT22;23248;48.120;14.854;2022-12-31T19:11:52;6.10;99.90
37378;DHT22;23248;48.120;14.854;2022-12-31T19:14:18;6.20;99.90
37378;DHT22;23248;48.120;14.854;2022-12-31T19:16:46;6.30;99.90
37378;DHT22;23248;48.120;14.854;2022-12-31T19:19:12;6.40;99.90
37378;DHT22;23248;48.120;14.854;2022-12-31T19:21:37;6.40;99.90
37378;DHT22;23248;48.120;14.854;2022-12-31T19:24:08;6.30;99.90
37378;DHT22;23248;48.120;14.854;2022-12-31T19:26:34;6.30;99.90
37378;DHT22;23248;48.120;14.854;2022-12-31T19:29:00;6.20;99.90
37378;DHT22;23248;48.120;14.854;2022-12-31T19:31:26;6.20;99.90
37378;DHT22;23248;48.120;14.854;2022-12-31T19:33:51;6.20;99.90
37378;DHT22;23248;48.120;14.854;2022-12-31T19:36:18;6.30;99.90
37378;DHT22;23248;48.120;14.854;2022-12-31T19:38:45;6.20;99.90
37378;DHT22;23248;48.120;14.854;2022-12-31T19:41:15;6.20;99.90
37378;DHT22;23248;48.120;14.854;2022-12-31T19:43:41;6.00;99.90
37378;DHT22;23248;48.120;14.854;2022-12-31T19:46:10;6.00;99.90
37378;DHT22;23248;48.120;14.854;2022-12-31T19:48:36;5.90;99.90
37378;DHT22;23248;48.120;14.854;2022-12-31T19:51:01;5.80;99.90
37378;DHT22;23248;48.120;14.854;2022-12-31T19:53:31;5.70;99.90
37378;DHT22;23248;48.120;14.854;2022-12-31T19:55:57;5.60;99.90
37378;DHT22;23248;48.120;14.854;2022-12-31T19:58:24;5.50;99.90
37378;DHT22;23248;48.120;14.854;2022-12-31T20:00:49;5.30;99.90
37378;DHT22;23248;48.120;14.854;2022-12-31T20:03:15;5.20;99.90